Sagittarian — WCY5210 — position and weather

sailwx.info

Track history (hours):
 
Tides and Currents Weather Stations Pressure Air Temp Water Temp Dewpoint Dewpoint Depression Visibility Wind Speed Wind Dir Waves Ship Positions

Sagittarian

Owner: TAURUS MARINE, SAN FRANCISCO, CA. More information available from US FCC via Universal Licensing System and Coast Guard Vessel Documentation Center.

Last reported at 2015-Jul-06 21:24 UTC. Time now 2015-Jul-07 06:51 UTC.
Position N 37°46' W 122°23'.

; draft 3 m.

Type: Towing. MMSI: 366969510.

Date/timePositionNaut miles runAvg speedWind from/ knotsBaromVisibWave heightAir tempDewpointWater temp
2015-Jul-06 21:24N 37°46' W 122°23'0 0.4
2015-Jul-06 20:34N 37°47' W 122°23'1 1.4
2015-Jul-06 19:34N 37°48' W 122°24'0 0.0
2015-Jul-06 18:33N 37°48' W 122°24'0 0.0
2015-Jul-06 17:34N 37°48' W 122°24'0 0.0
2015-Jul-06 16:34N 37°48' W 122°24'0 0.0
2015-Jul-06 15:34N 37°48' W 122°24'1 1.4
2015-Jul-06 14:34N 37°47' W 122°23'1 0.0
2015-Jul-06 01:30N 37°46' W 122°23'0 0.0
2015-Jul-06 00:34N 37°46' W 122°23'0 0.0
2015-Jul-05 23:34N 37°46' W 122°23'0 0.0
2015-Jul-05 22:34N 37°46' W 122°23'0 0.0
2015-Jul-05 21:34N 37°46' W 122°23'0 0.1
2015-Jul-05 20:34N 37°46' W 122°23'  
2015-Jul-02 20:27N 37°46' W 122°23'0 0.0
2015-Jul-02 19:28N 37°46' W 122°23'3 3.0
2015-Jul-02 18:33N 37°45' W 122°20'1 1.0
2015-Jul-02 17:33N 37°44' W 122°20'0 0.0
2015-Jul-02 16:33N 37°44' W 122°20'4 3.7
2015-Jul-02 15:33N 37°46' W 122°23'0 0.0
2015-Jul-01 11:33N 37°46' W 122°23'3 2.9
2015-Jul-01 10:33N 37°44' W 122°21'3 2.9
2015-Jul-01 09:33N 37°46' W 122°23'0 0.1
2015-Jul-01 08:33N 37°46' W 122°23'0 0.0
2015-Jun-30 19:33N 37°46' W 122°23'0 0.0
2015-Jun-30 18:33N 37°46' W 122°23'0 0.0
2015-Jun-30 17:33N 37°46' W 122°23'0 0.1
2015-Jun-30 16:33N 37°47' W 122°23'4 3.8
2015-Jun-30 15:33N 37°44' W 122°20'0 0.0
2015-Jun-30 14:33N 37°44' W 122°20'4 3.8
2015-Jun-30 13:33N 37°46' W 122°23'0 0.0
2015-Jun-29 19:33N 37°46' W 122°23'2 1.8
2015-Jun-29 18:33N 37°46' W 122°21'0 0.1
2015-Jun-29 17:33N 37°46' W 122°21'0 0.1
2015-Jun-29 16:33N 37°46' W 122°21'2 1.9
2015-Jun-29 15:33N 37°46' W 122°23'0 0.0
2015-Jun-29 02:04N 37°46' W 122°23'4 7.2
2015-Jun-29 01:33N 37°49' W 122°26'3 3.4
2015-Jun-29 00:33N 37°49' W 122°31'6 5.7
2015-Jun-28 23:33N 37°53' W 122°25'3 2.8
2015-Jun-28 22:33N 37°55' W 122°25'7 6.6
2015-Jun-28 21:33N 37°49' W 122°23'3 0.1
2015-Jun-28 02:09N 37°46' W 122°23'4 7.1
2015-Jun-28 01:33N 37°51' W 122°23'5 4.9
2015-Jun-28 00:33N 37°55' W 122°25'5 5.4
2015-Jun-27 23:33N 37°50' W 122°24'4 3.7
2015-Jun-27 22:33N 37°46' W 122°23'0 0.0
2015-Jun-27 16:13N 37°46' W 122°23'  
Track history (hours):
 
Tides and Currents Weather Stations Pressure Air Temp Water Temp Dewpoint Dewpoint Depression Visibility Wind Speed Wind Dir Waves Ship Positions

Sagittarian

Owner: TAURUS MARINE, SAN FRANCISCO, CA. More information available from US FCC via Universal Licensing System and Coast Guard Vessel Documentation Center.

Last reported at 2015-Jul-06 21:24 UTC. Time now 2015-Jul-07 06:51 UTC.
Position N 37°46' W 122°23'.

; draft 3 m.

Type: Towing. MMSI: 366969510.

Date/timePositionNaut miles runAvg speedWind from/ knotsBaromVisibWave heightAir tempDewpointWater temp
2015-Jul-06 21:24N 37°46' W 122°23'0 0.4
2015-Jul-06 20:34N 37°47' W 122°23'1 1.4
2015-Jul-06 19:34N 37°48' W 122°24'0 0.0
2015-Jul-06 18:33N 37°48' W 122°24'0 0.0
2015-Jul-06 17:34N 37°48' W 122°24'0 0.0
2015-Jul-06 16:34N 37°48' W 122°24'0 0.0
2015-Jul-06 15:34N 37°48' W 122°24'1 1.4
2015-Jul-06 14:34N 37°47' W 122°23'1 0.0
2015-Jul-06 01:30N 37°46' W 122°23'0 0.0
2015-Jul-06 00:34N 37°46' W 122°23'0 0.0
2015-Jul-05 23:34N 37°46' W 122°23'0 0.0
2015-Jul-05 22:34N 37°46' W 122°23'0 0.0
2015-Jul-05 21:34N 37°46' W 122°23'0 0.1
2015-Jul-05 20:34N 37°46' W 122°23'  
2015-Jul-02 20:27N 37°46' W 122°23'0 0.0
2015-Jul-02 19:28N 37°46' W 122°23'3 3.0
2015-Jul-02 18:33N 37°45' W 122°20'1 1.0
2015-Jul-02 17:33N 37°44' W 122°20'0 0.0
2015-Jul-02 16:33N 37°44' W 122°20'4 3.7
2015-Jul-02 15:33N 37°46' W 122°23'0 0.0
2015-Jul-01 11:33N 37°46' W 122°23'3 2.9
2015-Jul-01 10:33N 37°44' W 122°21'3 2.9
2015-Jul-01 09:33N 37°46' W 122°23'0 0.1
2015-Jul-01 08:33N 37°46' W 122°23'0 0.0
2015-Jun-30 19:33N 37°46' W 122°23'0 0.0
2015-Jun-30 18:33N 37°46' W 122°23'0 0.0
2015-Jun-30 17:33N 37°46' W 122°23'0 0.1
2015-Jun-30 16:33N 37°47' W 122°23'4 3.8
2015-Jun-30 15:33N 37°44' W 122°20'0 0.0
2015-Jun-30 14:33N 37°44' W 122°20'4 3.8
2015-Jun-30 13:33N 37°46' W 122°23'0 0.0
2015-Jun-29 19:33N 37°46' W 122°23'2 1.8
2015-Jun-29 18:33N 37°46' W 122°21'0 0.1
2015-Jun-29 17:33N 37°46' W 122°21'0 0.1
2015-Jun-29 16:33N 37°46' W 122°21'2 1.9
2015-Jun-29 15:33N 37°46' W 122°23'0 0.0
2015-Jun-29 02:04N 37°46' W 122°23'4 7.2
2015-Jun-29 01:33N 37°49' W 122°26'3 3.4
2015-Jun-29 00:33N 37°49' W 122°31'6 5.7
2015-Jun-28 23:33N 37°53' W 122°25'3 2.8
2015-Jun-28 22:33N 37°55' W 122°25'7 6.6
2015-Jun-28 21:33N 37°49' W 122°23'3 0.1
2015-Jun-28 02:09N 37°46' W 122°23'4 7.1
2015-Jun-28 01:33N 37°51' W 122°23'5 4.9
2015-Jun-28 00:33N 37°55' W 122°25'5 5.4
2015-Jun-27 23:33N 37°50' W 122°24'4 3.7
2015-Jun-27 22:33N 37°46' W 122°23'0 0.0
2015-Jun-27 16:13N 37°46' W 122°23'  

Dump ship's entire track history